Time;durP1;ratioP1;P1;durP2;ratioP2;P2;SDS_P1;SDS_P2;PMS_P1;PMS_P2;Temp;Humidity;BMP_temperature;BMP_pressure;BME280_temperature;BME280_humidity;BME280_pressure;Samples;Min_cycle;Max_cycle;Signal;HPM_P1;HPM_P2
2022/01/26 00:00:01;;;;;;;75.13;32.40;;;;;;;;;;4977674;28;92675;-81
2022/01/26 00:07:52;;;;;;;69.35;31.25;;;;;;;;;;4977064;28;92573;-78
2022/01/26 00:10:18;;;;;;;71.00;30.92;;;;;;;;;;4975271;28;94750;-79
2022/01/26 00:12:46;;;;;;;74.15;32.17;;;;;;;;;;4977083;28;94287;-79
2022/01/26 00:15:12;;;;;;;75.22;31.25;;;;;;;;;;4963686;28;92718;-80
2022/01/26 00:17:38;;;;;;;75.60;31.55;;;;;;;;;;4977020;28;93670;-80
2022/01/26 00:20:18;;;;;;;78.28;32.60;;;;;;;;;;4977215;28;92410;-78
2022/01/26 00:28:06;;;;;;;75.93;31.20;;;;;;;;;;4979504;28;91463;-79
2022/01/26 00:38:44;;;;;;;73.72;29.50;;;;;;;;;;4949961;28;95067;-79
2022/01/26 00:41:14;;;;;;;68.97;29.75;;;;;;;;;;4978952;28;92333;-78
2022/01/26 00:43:44;;;;;;;70.32;29.20;;;;;;;;;;4977561;28;93207;-79
2022/01/26 00:46:11;;;;;;;73.18;30.60;;;;;;;;;;4977749;28;93391;-79
2022/01/26 00:48:38;;;;;;;74.93;31.23;;;;;;;;;;4943708;28;92453;-82
2022/01/26 00:51:06;;;;;;;64.03;28.80;;;;;;;;;;5003175;28;93003;-78
2022/01/26 00:53:37;;;;;;;74.15;30.05;;;;;;;;;;5000952;28;93573;-78
2022/01/26 00:56:04;;;;;;;75.67;31.13;;;;;;;;;;5000057;28;92444;-81
2022/01/26 00:58:31;;;;;;;73.20;31.23;;;;;;;;;;5003438;28;94733;-81
2022/01/26 01:00:59;;;;;;;68.72;30.13;;;;;;;;;;5016786;28;94849;-79
2022/01/26 01:03:27;;;;;;;70.22;29.92;;;;;;;;;;5018536;28;95874;-79
2022/01/26 01:06:05;;;;;;;74.55;30.67;;;;;;;;;;5000674;28;93743;-78
2022/01/26 01:08:31;;;;;;;71.82;30.40;;;;;;;;;;5017382;28;94524;-79
2022/01/26 01:10:58;;;;;;;73.68;30.80;;;;;;;;;;5018128;28;92903;-79
2022/01/26 01:13:35;;;;;;;75.65;32.10;;;;;;;;;;5018142;28;93217;-78
2022/01/26 01:16:02;;;;;;;76.90;32.38;;;;;;;;;;5018294;28;92290;-80
2022/01/26 01:19:27;;;;;;;77.68;31.27;;;;;;;;;;5018358;28;93316;-79
2022/01/26 01:22:03;;;;;;;75.80;31.20;;;;;;;;;;5007720;28;93265;-78
2022/01/26 01:29:47;;;;;;;75.05;33.03;;;;;;;;;;5017316;28;92332;-78
2022/01/26 01:32:16;;;;;;;72.72;30.52;;;;;;;;;;5017615;28;93593;-79
2022/01/26 01:34:43;;;;;;;78.05;33.38;;;;;;;;;;5017837;28;93161;-79
2022/01/26 01:37:14;;;;;;;73.75;32.45;;;;;;;;;;5017598;28;92268;-78
2022/01/26 01:39:42;;;;;;;82.20;33.63;;;;;;;;;;5017803;28;92850;-79
2022/01/26 01:42:09;;;;;;;76.03;31.92;;;;;;;;;;5017422;28;92510;-78
2022/01/26 01:44:36;;;;;;;77.78;32.88;;;;;;;;;;5021377;28;92015;-80
2022/01/26 01:47:03;;;;;;;79.18;34.53;;;;;;;;;;5017479;28;93050;-78
2022/01/26 01:49:29;;;;;;;87.65;34.53;;;;;;;;;;5021989;27;92465;-78
2022/01/26 01:52:02;;;;;;;83.57;34.38;;;;;;;;;;5053491;27;94748;-78
2022/01/26 01:54:29;;;;;;;75.05;33.55;;;;;;;;;;5039329;27;94163;-79
2022/01/26 01:56:57;;;;;;;85.68;35.78;;;;;;;;;;5057676;27;92285;-77
2022/01/26 01:59:25;;;;;;;80.63;33.22;;;;;;;;;;5057724;27;93407;-78
2022/01/26 02:01:52;;;;;;;85.30;34.80;;;;;;;;;;5022598;27;95089;-78
2022/01/26 02:04:19;;;;;;;80.97;34.28;;;;;;;;;;5057745;27;92177;-78
2022/01/26 02:06:45;;;;;;;88.30;35.08;;;;;;;;;;5060891;27;93972;-78
2022/01/26 02:09:14;;;;;;;85.95;35.35;;;;;;;;;;5039722;27;93275;-79
2022/01/26 02:11:48;;;;;;;83.60;33.78;;;;;;;;;;5057956;27;92167;-78
2022/01/26 02:14:29;;;;;;;86.63;36.85;;;;;;;;;;5059424;27;93132;-80
2022/01/26 02:20:07;;;;;;;87.10;35.90;;;;;;;;;;5046901;27;99165;-79
2022/01/26 02:55:18;;;;;;;96.22;39.05;;;;;;;;;;5038551;27;94636;-79
2022/01/26 03:00:21;;;;;;;99.78;39.25;;;;;;;;;;5039204;27;93567;-79
2022/01/26 03:02:56;;;;;;;97.15;40.55;;;;;;;;;;5057476;27;91994;-80
2022/01/26 03:05:28;;;;;;;101.82;39.20;;;;;;;;;;5038770;27;93804;-80
2022/01/26 03:08:01;;;;;;;102.00;39.60;;;;;;;;;;5056838;27;92189;-79
2022/01/26 03:10:38;;;;;;;97.10;39.60;;;;;;;;;;5055089;27;94614;-80
2022/01/26 03:13:11;;;;;;;97.43;39.35;;;;;;;;;;5056633;27;93166;-80
2022/01/26 03:15:43;;;;;;;101.10;40.72;;;;;;;;;;5059596;27;92312;-80
2022/01/26 03:20:53;;;;;;;100.28;41.22;;;;;;;;;;5056719;27;92307;-80
2022/01/26 03:33:56;;;;;;;109.93;43.53;;;;;;;;;;5056854;27;93082;-79
2022/01/26 03:36:27;;;;;;;105.65;43.10;;;;;;;;;;5055084;27;94741;-79
2022/01/26 03:39:01;;;;;;;107.32;44.15;;;;;;;;;;5058616;27;94446;-79
2022/01/26 03:44:03;;;;;;;108.90;43.67;;;;;;;;;;5038177;27;94473;-79
2022/01/26 03:46:31;;;;;;;111.47;42.80;;;;;;;;;;5037862;27;94269;-79
2022/01/26 03:48:58;;;;;;;109.93;43.97;;;;;;;;;;5056306;27;92309;-79
2022/01/26 03:51:25;;;;;;;112.65;43.63;;;;;;;;;;5055733;27;92815;-78
2022/01/26 03:53:51;;;;;;;119.45;44.88;;;;;;;;;;5056506;27;92678;-79
2022/01/26 03:56:17;;;;;;;108.38;45.38;;;;;;;;;;5056208;27;92404;-78
2022/01/26 03:58:44;;;;;;;112.55;44.67;;;;;;;;;;5038248;27;92362;-79
2022/01/26 04:01:10;;;;;;;116.25;45.20;;;;;;;;;;5039515;27;98685;-78
2022/01/26 04:03:37;;;;;;;109.72;43.72;;;;;;;;;;5055952;27;95877;-80
2022/01/26 04:06:04;;;;;;;110.97;44.67;;;;;;;;;;5055836;27;93207;-78
2022/01/26 04:08:32;;;;;;;115.20;46.47;;;;;;;;;;5037953;27;92300;-79
2022/01/26 04:13:45;;;;;;;110.82;45.53;;;;;;;;;;5055845;27;93599;-79
2022/01/26 04:16:12;;;;;;;108.90;44.50;;;;;;;;;;5056028;27;92333;-79
2022/01/26 04:18:40;;;;;;;110.68;46.10;;;;;;;;;;5055926;27;92948;-80
2022/01/26 04:21:18;;;;;;;111.32;46.40;;;;;;;;;;5056890;27;93668;-80
2022/01/26 04:23:56;;;;;;;102.90;42.75;;;;;;;;;;5044257;27;92261;-78
2022/01/26 04:26:38;;;;;;;111.57;45.10;;;;;;;;;;5039346;27;96709;-79
2022/01/26 04:29:10;;;;;;;111.28;45.58;;;;;;;;;;5039941;27;92410;-79
2022/01/26 04:31:36;;;;;;;107.30;45.75;;;;;;;;;;5059428;27;92778;-78
2022/01/26 04:34:04;;;;;;;113.78;45.83;;;;;;;;;;5058941;27;93150;-80
2022/01/26 04:36:40;;;;;;;105.68;44.80;;;;;;;;;;5059162;27;92321;-78
2022/01/26 04:39:11;;;;;;;110.07;44.90;;;;;;;;;;5059274;27;92571;-79
2022/01/26 04:41:48;;;;;;;119.40;46.08;;;;;;;;;;5041067;27;93652;-79
2022/01/26 04:44:39;;;;;;;108.18;45.30;;;;;;;;;;5059526;27;91639;-78
2022/01/26 04:47:03;;;;;;;107.80;45.13;;;;;;;;;;5061597;27;93252;-78
2022/01/26 04:49:30;;;;;;;109.07;45.13;;;;;;;;;;5059048;27;92355;-79
2022/01/26 04:51:58;;;;;;;111.05;45.85;;;;;;;;;;5056542;27;94738;-77
2022/01/26 04:54:24;;;;;;;109.30;46.58;;;;;;;;;;5058754;27;92880;-79
2022/01/26 04:56:50;;;;;;;104.80;45.20;;;;;;;;;;5035891;28;92444;-79
2022/01/26 04:59:17;;;;;;;117.53;47.15;;;;;;;;;;5036720;28;93343;-79
2022/01/26 05:01:43;;;;;;;121.50;47.58;;;;;;;;;;5036033;28;93254;-80
2022/01/26 05:04:10;;;;;;;115.63;46.03;;;;;;;;;;5036219;28;92476;-80
2022/01/26 05:06:36;;;;;;;118.47;47.67;;;;;;;;;;5039546;28;93069;-78
2022/01/26 05:09:03;;;;;;;118.15;45.45;;;;;;;;;;5037082;28;91657;-77
2022/01/26 05:11:39;;;;;;;119.28;47.78;;;;;;;;;;5036422;28;92581;-79
2022/01/26 05:14:06;;;;;;;112.03;47.05;;;;;;;;;;5036430;28;93314;-79
2022/01/26 05:16:33;;;;;;;116.07;47.28;;;;;;;;;;5034635;28;94802;-78
2022/01/26 05:18:59;;;;;;;119.80;47.00;;;;;;;;;;5036257;28;95296;-78
2022/01/26 05:21:26;;;;;;;110.47;47.08;;;;;;;;;;5036155;28;93062;-77
2022/01/26 05:23:53;;;;;;;117.00;46.40;;;;;;;;;;5035788;28;92399;-79
2022/01/26 05:26:19;;;;;;;119.82;47.33;;;;;;;;;;5036377;28;92858;-80
2022/01/26 05:28:46;;;;;;;114.25;46.38;;;;;;;;;;5057912;27;93212;-78
2022/01/26 05:31:12;;;;;;;116.40;46.55;;;;;;;;;;5040121;27;93297;-81
2022/01/26 05:33:39;;;;;;;109.70;44.83;;;;;;;;;;5057895;27;92563;-79
2022/01/26 05:36:05;;;;;;;119.20;47.42;;;;;;;;;;5040391;27;92296;-80
2022/01/26 05:38:32;;;;;;;120.72;48.33;;;;;;;;;;5040391;27;93040;-82
2022/01/26 05:41:01;;;;;;;120.95;47.85;;;;;;;;;;5056244;27;95453;-79
2022/01/26 05:43:34;;;;;;;121.30;47.25;;;;;;;;;;5058145;27;92623;-78
2022/01/26 05:46:06;;;;;;;118.30;47.22;;;;;;;;;;5057302;27;92899;-78
2022/01/26 05:48:34;;;;;;;;;;;;;;;;;;5058289;27;93601;-78
2022/01/26 05:51:08;;;;;;;117.65;45.90;;;;;;;;;;5060175;27;119236;-80
2022/01/26 05:53:35;;;;;;;122.72;48.75;;;;;;;;;;5057865;27;94073;-80
2022/01/26 05:56:02;;;;;;;117.60;47.33;;;;;;;;;;5058031;27;92328;-78
2022/01/26 05:58:29;;;;;;;122.50;48.70;;;;;;;;;;5057613;27;93451;-80
2022/01/26 06:00:58;;;;;;;128.63;49.78;;;;;;;;;;5057553;27;93565;-79
2022/01/26 06:03:25;;;;;;;123.45;48.92;;;;;;;;;;5057564;27;92333;-79
2022/01/26 06:05:54;;;;;;;125.38;48.80;;;;;;;;;;5056230;27;95247;-80
2022/01/26 06:08:21;;;;;;;126.80;51.05;;;;;;;;;;5039574;27;94661;-80
2022/01/26 06:10:48;;;;;;;134.05;50.30;;;;;;;;;;5039787;27;92339;-78
2022/01/26 06:13:14;;;;;;;131.80;50.60;;;;;;;;;;5060274;27;93353;-80
2022/01/26 06:15:41;;;;;;;131.77;49.38;;;;;;;;;;5039329;27;92690;-79
2022/01/26 06:18:08;;;;;;;129.45;50.13;;;;;;;;;;5057686;27;93670;-79
2022/01/26 06:20:34;;;;;;;132.75;50.55;;;;;;;;;;5057073;27;93891;-78
2022/01/26 06:23:02;;;;;;;129.32;49.08;;;;;;;;;;5039711;27;92517;-79
2022/01/26 06:25:29;;;;;;;137.90;50.53;;;;;;;;;;5057784;27;92485;-79
2022/01/26 06:27:58;;;;;;;134.32;51.20;;;;;;;;;;5057162;27;92950;-79
2022/01/26 06:30:24;;;;;;;125.80;47.95;;;;;;;;;;5055831;27;94616;-81
2022/01/26 06:32:52;;;;;;;136.02;50.08;;;;;;;;;;5057166;27;95101;-79
2022/01/26 06:35:20;;;;;;;143.05;52.05;;;;;;;;;;5060355;27;93220;-79
2022/01/26 06:37:46;;;;;;;137.00;51.08;;;;;;;;;;5057382;27;92712;-80
2022/01/26 06:40:13;;;;;;;145.18;51.00;;;;;;;;;;5056783;27;93262;-81
2022/01/26 06:42:51;;;;;;;132.75;48.97;;;;;;;;;;5057185;27;92213;-79
2022/01/26 06:45:22;;;;;;;135.32;48.90;;;;;;;;;;5056760;27;93600;-80
2022/01/26 06:50:20;;;;;;;141.88;51.30;;;;;;;;;;5056856;27;92368;-79
2022/01/26 06:52:47;;;;;;;146.10;51.28;;;;;;;;;;5057038;27;92491;-79
2022/01/26 06:55:17;;;;;;;142.30;51.58;;;;;;;;;;5061543;27;95462;-78
2022/01/26 06:57:44;;;;;;;145.10;51.33;;;;;;;;;;5070816;27;92108;-79
2022/01/26 07:00:11;;;;;;;143.35;52.80;;;;;;;;;;5068041;27;92166;-79
2022/01/26 07:02:39;;;;;;;137.30;50.70;;;;;;;;;;5061171;27;92722;-80
2022/01/26 07:05:06;;;;;;;148.05;52.75;;;;;;;;;;5061060;27;92853;-82
2022/01/26 07:07:33;;;;;;;142.52;50.33;;;;;;;;;;5060393;27;93121;-79
2022/01/26 07:09:59;;;;;;;141.68;50.35;;;;;;;;;;5058297;27;92237;-80
2022/01/26 07:12:26;;;;;;;133.10;48.38;;;;;;;;;;5057972;27;93405;-80
2022/01/26 07:23:09;;;;;;;146.38;52.08;;;;;;;;;;5056990;27;92250;-81
2022/01/26 07:25:35;;;;;;;140.38;50.80;;;;;;;;;;5022044;27;96352;-79
2022/01/26 07:28:04;;;;;;;138.90;49.00;;;;;;;;;;5056565;27;93016;-79
2022/01/26 07:30:37;;;;;;;146.73;51.45;;;;;;;;;;5022031;27;93024;-79
2022/01/26 07:33:04;;;;;;;139.60;50.15;;;;;;;;;;5038759;27;93357;-81
2022/01/26 07:35:31;;;;;;;142.10;51.65;;;;;;;;;;5056585;27;93148;-81
2022/01/26 07:37:59;;;;;;;140.43;51.30;;;;;;;;;;5057449;27;91554;-81
2022/01/26 07:40:26;;;;;;;145.95;50.88;;;;;;;;;;5059855;27;92397;-78
2022/01/26 07:42:52;;;;;;;146.43;52.03;;;;;;;;;;5063292;27;92246;-79
2022/01/26 07:45:19;;;;;;;144.65;52.72;;;;;;;;;;5060697;27;94549;-79
2022/01/26 07:47:46;;;;;;;144.82;50.70;;;;;;;;;;5044973;27;94243;-80
2022/01/26 07:50:14;;;;;;;150.68;52.38;;;;;;;;;;5056670;27;92341;-78
2022/01/26 07:52:43;;;;;;;142.93;50.20;;;;;;;;;;5036357;27;96119;-75
2022/01/26 07:58:55;;;;;;;131.68;48.80;;;;;;;;;;5042202;27;92322;-80
2022/01/26 08:01:35;;;;;;;137.32;50.10;;;;;;;;;;5026486;27;95651;-78
2022/01/26 08:04:12;;;;;;;134.32;49.60;;;;;;;;;;5044726;27;95019;-82
2022/01/26 08:06:58;;;;;;;141.00;49.58;;;;;;;;;;5027146;27;93471;-79
2022/01/26 08:09:25;;;;;;;130.95;49.25;;;;;;;;;;5059443;27;92880;-78
2022/01/26 08:11:54;;;;;;;133.88;49.92;;;;;;;;;;5057772;27;94758;-82
2022/01/26 08:14:21;;;;;;;131.57;48.40;;;;;;;;;;5059199;27;95551;-79
2022/01/26 08:16:47;;;;;;;126.28;47.78;;;;;;;;;;5040962;27;94712;-77
2022/01/26 08:19:16;;;;;;;120.82;45.88;;;;;;;;;;5041423;27;92430;-78
2022/01/26 08:21:43;;;;;;;131.43;46.67;;;;;;;;;;5058921;27;93640;-77
2022/01/26 08:24:14;;;;;;;112.20;45.03;;;;;;;;;;5040880;27;95831;-77
2022/01/26 08:26:45;;;;;;;115.27;45.20;;;;;;;;;;5062173;27;92706;-77
2022/01/26 08:29:17;;;;;;;99.07;40.97;;;;;;;;;;5059386;27;92711;-79
2022/01/26 08:31:44;;;;;;;103.00;41.25;;;;;;;;;;5059115;27;92298;-79
2022/01/26 08:34:10;;;;;;;100.50;42.53;;;;;;;;;;5059116;27;93963;-78
2022/01/26 08:36:37;;;;;;;92.60;40.20;;;;;;;;;;5057337;27;95828;-77
2022/01/26 08:39:03;;;;;;;98.55;40.58;;;;;;;;;;5058837;27;92417;-77
2022/01/26 08:41:30;;;;;;;89.95;37.80;;;;;;;;;;5059055;27;93458;-76
2022/01/26 08:43:56;;;;;;;88.20;37.85;;;;;;;;;;5040644;27;97781;-78
2022/01/26 08:46:23;;;;;;;79.53;38.13;;;;;;;;;;5041128;27;92361;-78
2022/01/26 08:48:49;;;;;;;80.90;36.75;;;;;;;;;;5061808;27;92218;-78
2022/01/26 08:51:21;;;;;;;88.80;38.63;;;;;;;;;;5058811;27;92421;-78
2022/01/26 08:53:48;;;;;;;83.45;35.72;;;;;;;;;;5058818;27;93015;-78
2022/01/26 08:56:15;;;;;;;75.93;35.30;;;;;;;;;;5058474;27;94031;-78
2022/01/26 08:58:42;;;;;;;90.78;38.25;;;;;;;;;;5058476;27;92671;-80
2022/01/26 09:01:08;;;;;;;82.90;37.85;;;;;;;;;;5057462;27;94684;-81
2022/01/26 09:03:39;;;;;;;87.20;37.90;;;;;;;;;;5040349;27;96677;-82
2022/01/26 09:06:07;;;;;;;87.18;38.17;;;;;;;;;;5058170;27;92360;-78
2022/01/26 09:08:40;;;;;;;86.90;37.08;;;;;;;;;;5059437;27;92825;-78
2022/01/26 09:11:07;;;;;;;75.63;34.72;;;;;;;;;;5058397;27;92333;-77
2022/01/26 09:13:35;;;;;;;74.75;32.10;;;;;;;;;;5058777;27;93097;-77
2022/01/26 09:16:05;;;;;;;74.25;36.55;;;;;;;;;;5058413;27;93640;-77
2022/01/26 09:18:50;;;;;;;82.28;35.33;;;;;;;;;;5058960;27;91533;-77
2022/01/26 09:21:17;;;;;;;80.43;34.33;;;;;;;;;;5040575;27;93298;-79
2022/01/26 09:23:44;;;;;;;81.45;36.63;;;;;;;;;;5040436;27;94026;-80
2022/01/26 09:26:11;;;;;;;77.50;35.97;;;;;;;;;;5056648;27;94551;-80
2022/01/26 09:28:37;;;;;;;79.55;35.03;;;;;;;;;;5040189;27;96069;-80
2022/01/26 09:31:04;;;;;;;76.57;34.60;;;;;;;;;;5026291;27;95630;-79
2022/01/26 09:33:30;;;;;;;76.47;34.50;;;;;;;;;;5039811;27;93627;-80
2022/01/26 09:35:58;;;;;;;69.93;33.40;;;;;;;;;;5023188;27;94990;-79
2022/01/26 09:38:27;;;;;;;70.53;31.75;;;;;;;;;;5057998;27;92360;-80
2022/01/26 09:40:54;;;;;;;70.05;31.15;;;;;;;;;;5023415;27;96684;-79
2022/01/26 09:43:20;;;;;;;74.70;32.72;;;;;;;;;;5036229;27;95249;-80
2022/01/26 09:45:47;;;;;;;67.43;31.02;;;;;;;;;;5041619;27;93075;-80
2022/01/26 09:48:14;;;;;;;64.13;29.92;;;;;;;;;;5045142;27;95784;-81
2022/01/26 09:50:53;;;;;;;70.10;31.15;;;;;;;;;;4993045;28;97978;-79
2022/01/26 09:53:22;;;;;;;68.15;31.80;;;;;;;;;;4983811;28;92553;-78
2022/01/26 09:55:50;;;;;;;71.25;31.52;;;;;;;;;;4994931;28;94865;-80
2022/01/26 09:58:16;;;;;;;77.75;33.28;;;;;;;;;;4995109;28;92394;-79
2022/01/26 10:00:43;;;;;;;62.78;29.58;;;;;;;;;;4978085;28;96866;-81
2022/01/26 10:03:10;;;;;;;61.08;28.38;;;;;;;;;;4977997;28;96710;-80
2022/01/26 10:05:44;;;;;;;67.45;29.65;;;;;;;;;;4995176;28;92410;-81
2022/01/26 10:08:25;;;;;;;66.10;29.70;;;;;;;;;;4979147;28;95432;-78
2022/01/26 10:19:04;;;;;;;59.70;25.67;;;;;;;;;;4993845;28;93150;-79
2022/01/26 10:21:47;;;;;;;50.22;23.73;;;;;;;;;;5001169;27;96950;-80
2022/01/26 10:24:13;;;;;;;54.95;25.67;;;;;;;;;;5038553;27;95891;-80
2022/01/26 10:26:45;;;;;;;57.50;27.08;;;;;;;;;;5022522;27;92826;-80
2022/01/26 10:29:12;;;;;;;62.50;28.30;;;;;;;;;;5039672;27;93751;-81
2022/01/26 10:31:40;;;;;;;54.65;27.58;;;;;;;;;;5039672;27;94102;-80
2022/01/26 10:34:15;;;;;;;60.65;27.73;;;;;;;;;;5039475;27;91746;-80
2022/01/26 10:36:43;;;;;;;59.53;25.90;;;;;;;;;;5039843;27;92343;-81
2022/01/26 10:39:13;;;;;;;65.03;27.30;;;;;;;;;;5025115;27;95938;-81
2022/01/26 10:41:42;;;;;;;70.43;27.88;;;;;;;;;;5055515;27;94666;-82
2022/01/26 10:44:12;;;;;;;71.57;27.70;;;;;;;;;;5021765;27;96094;-83
2022/01/26 10:46:44;;;;;;;64.95;27.85;;;;;;;;;;5022530;27;94256;-82
2022/01/26 10:54:39;;;;;;;54.25;24.90;;;;;;;;;;5039213;27;92829;-82
2022/01/26 10:57:06;;;;;;;;;;;;;;;;;;5057499;27;93025;-81
2022/01/26 10:59:40;;;;;;;63.42;25.20;;;;;;;;;;5039470;27;122359;-82
2022/01/26 11:02:10;;;;;;;67.10;25.80;;;;;;;;;;5060417;27;92390;-79
2022/01/26 11:04:42;;;;;;;65.03;26.95;;;;;;;;;;5039251;27;93434;-80
2022/01/26 11:07:09;;;;;;;62.65;25.88;;;;;;;;;;5058876;27;94694;-78
2022/01/26 11:09:37;;;;;;;63.25;26.55;;;;;;;;;;5047504;27;96061;-78
2022/01/26 11:12:10;;;;;;;63.22;26.50;;;;;;;;;;5059669;27;92557;-78
2022/01/26 11:14:44;;;;;;;58.50;26.20;;;;;;;;;;5063958;27;92288;-76
2022/01/26 11:17:24;;;;;;;59.53;25.45;;;;;;;;;;5063826;27;93049;-75
2022/01/26 11:19:52;;;;;;;64.05;26.13;;;;;;;;;;5057181;27;93197;-74
2022/01/26 11:22:25;;;;;;;60.55;26.63;;;;;;;;;;5055466;27;92809;-73
2022/01/26 11:24:52;;;;;;;65.55;27.35;;;;;;;;;;5057089;27;92981;-75
2022/01/26 11:27:19;;;;;;;62.53;28.13;;;;;;;;;;5038733;27;92429;-79
2022/01/26 11:29:49;;;;;;;58.40;28.73;;;;;;;;;;5057546;27;92560;-78
2022/01/26 11:32:20;;;;;;;57.10;27.63;;;;;;;;;;5058095;27;96107;-76
2022/01/26 11:34:48;;;;;;;56.20;27.30;;;;;;;;;;5060490;27;92418;-79
2022/01/26 11:37:17;;;;;;;64.30;27.67;;;;;;;;;;5025957;27;94072;-78
2022/01/26 11:45:19;;;;;;;59.20;27.67;;;;;;;;;;5063117;27;93504;-78
2022/01/26 11:47:57;;;;;;;64.88;27.58;;;;;;;;;;5059957;27;92175;-78
2022/01/26 11:50:25;;;;;;;72.07;27.17;;;;;;;;;;5059997;27;93452;-76
2022/01/26 11:53:03;;;;;;;55.75;27.00;;;;;;;;;;5041552;27;94598;-77
2022/01/26 11:55:34;;;;;;;53.95;26.13;;;;;;;;;;5060094;27;92238;-76
2022/01/26 11:58:07;;;;;;;55.00;25.67;;;;;;;;;;5058444;27;94556;-75
2022/01/26 12:01:08;;;;;;;56.53;26.10;;;;;;;;;;5041750;27;94704;-77
2022/01/26 12:03:43;;;;;;;60.92;26.63;;;;;;;;;;5059198;27;92268;-77
2022/01/26 12:06:18;;;;;;;59.05;26.10;;;;;;;;;;5059769;27;92989;-79
2022/01/26 12:08:45;;;;;;;67.50;26.58;;;;;;;;;;5044735;27;94727;-80
2022/01/26 12:11:15;;;;;;;60.67;27.05;;;;;;;;;;5059875;27;92702;-79
2022/01/26 12:13:43;;;;;;;63.97;27.60;;;;;;;;;;5006311;27;93129;-75
2022/01/26 12:16:14;;;;;;;71.22;28.80;;;;;;;;;;5059831;27;91533;-75
2022/01/26 12:18:54;;;;;;;63.00;29.17;;;;;;;;;;5059452;27;92996;-75
2022/01/26 12:32:51;;;;;;;65.05;29.63;;;;;;;;;;5062193;27;92307;-78
2022/01/26 12:38:50;;;;;;;59.97;28.67;;;;;;;;;;5059272;27;92316;-77
2022/01/26 12:43:50;;;;;;;57.83;28.13;;;;;;;;;;5059224;27;92718;-77
2022/01/26 12:46:18;;;;;;;66.75;29.60;;;;;;;;;;5058847;27;92376;-77
2022/01/26 12:48:51;;;;;;;56.05;27.65;;;;;;;;;;5058650;27;93278;-77
2022/01/26 12:51:18;;;;;;;54.40;27.40;;;;;;;;;;5038961;27;97874;-77
2022/01/26 12:53:50;;;;;;;59.58;27.33;;;;;;;;;;5058424;27;92247;-77
2022/01/26 12:56:18;;;;;;;53.55;27.38;;;;;;;;;;5061527;27;93703;-77
2022/01/26 12:58:45;;;;;;;56.65;28.25;;;;;;;;;;5040786;27;92437;-77
2022/01/26 13:01:17;;;;;;;52.25;27.17;;;;;;;;;;5058612;27;92227;-78
2022/01/26 13:03:46;;;;;;;64.90;30.08;;;;;;;;;;5058509;27;93509;-75
2022/01/26 13:06:14;;;;;;;57.83;29.00;;;;;;;;;;5058834;27;92455;-79
2022/01/26 13:08:41;;;;;;;56.70;27.15;;;;;;;;;;5041111;27;93532;-77
2022/01/26 13:11:07;;;;;;;57.22;28.02;;;;;;;;;;5058431;27;93543;-77
2022/01/26 13:13:34;;;;;;;51.65;27.10;;;;;;;;;;5058511;27;92183;-77
2022/01/26 13:16:12;;;;;;;55.30;27.27;;;;;;;;;;5056391;27;94818;-77
2022/01/26 13:21:40;;;;;;;52.72;27.20;;;;;;;;;;5058236;27;93692;-77
2022/01/26 13:24:27;;;;;;;50.50;26.23;;;;;;;;;;5040441;27;93520;-77
2022/01/26 13:27:52;;;;;;;46.78;26.38;;;;;;;;;;5058693;27;92298;-78
2022/01/26 13:30:03;;;;;;;47.72;25.08;;;;;;;;;;5043929;27;92881;-77
2022/01/26 13:37:43;;;;;;;51.67;26.15;;;;;;;;;;5058290;27;92966;-77
2022/01/26 13:40:26;;;;;;;50.35;25.73;;;;;;;;;;5061313;27;93015;-76
2022/01/26 13:46:00;;;;;;;53.85;26.05;;;;;;;;;;5057956;27;93820;-75
2022/01/26 13:51:12;;;;;;;54.22;26.23;;;;;;;;;;5057431;27;94349;-76
2022/01/26 13:53:55;;;;;;;54.25;26.38;;;;;;;;;;5020570;27;95595;-76
2022/01/26 14:01:55;;;;;;;58.60;25.70;;;;;;;;;;5039419;27;92794;-76
2022/01/26 14:04:21;;;;;;;55.28;26.42;;;;;;;;;;5060858;27;92263;-77
2022/01/26 14:06:49;;;;;;;55.25;25.83;;;;;;;;;;5057624;27;93281;-75
2022/01/26 14:09:16;;;;;;;51.28;26.67;;;;;;;;;;5056422;27;95624;-76
2022/01/26 14:11:46;;;;;;;53.85;26.17;;;;;;;;;;5057381;27;95876;-76
2022/01/26 14:14:21;;;;;;;52.30;25.85;;;;;;;;;;5038370;27;93116;-77
2022/01/26 14:16:56;;;;;;;50.38;25.08;;;;;;;;;;5009360;28;92371;-77
2022/01/26 14:19:38;;;;;;;44.75;24.63;;;;;;;;;;5027221;28;93392;-77
2022/01/26 14:27:25;;;;;;;50.45;26.17;;;;;;;;;;5040559;28;93462;-76
2022/01/26 14:35:19;;;;;;;50.08;24.33;;;;;;;;;;5034227;27;95396;-77
2022/01/26 14:52:20;;;;;;;42.13;22.20;;;;;;;;;;5019397;28;93224;-77
2022/01/26 15:00:26;;;;;;;40.55;22.40;;;;;;;;;;4987430;28;92508;-76
2022/01/26 15:12:11;;;;;;;40.67;22.67;;;;;;;;;;5062331;27;93623;-73
2022/01/26 15:35:37;;;;;;;48.33;26.15;;;;;;;;;;5049997;27;94126;-76
2022/01/26 15:51:31;;;;;;;54.42;27.60;;;;;;;;;;5035689;28;92318;-75
2022/01/26 16:05:25;;;;;;;53.83;30.70;;;;;;;;;;5035745;28;92233;-75
2022/01/26 16:08:10;;;;;;;54.17;30.30;;;;;;;;;;5035182;28;93322;-76
2022/01/26 16:21:23;;;;;;;60.42;33.10;;;;;;;;;;5038870;28;92458;-76
2022/01/26 16:27:22;;;;;;;63.90;34.00;;;;;;;;;;5042123;28;93103;-75
2022/01/26 16:35:37;;;;;;;59.97;32.05;;;;;;;;;;5038790;28;92161;-74
2022/01/26 16:38:46;;;;;;;69.00;36.30;;;;;;;;;;5039006;28;93197;-75
2022/01/26 16:52:29;;;;;;;65.13;34.33;;;;;;;;;;5039402;28;91484;-75
2022/01/26 18:46:47;;;;;;;71.55;37.97;;;;;;;;;;5015641;28;94518;-75
2022/01/26 18:49:16;;;;;;;71.80;37.22;;;;;;;;;;5016289;28;92383;-73
2022/01/26 18:51:49;;;;;;;77.63;37.42;;;;;;;;;;5019274;28;92866;-75
2022/01/26 18:54:16;;;;;;;68.50;36.60;;;;;;;;;;5016106;28;92662;-74
2022/01/26 18:56:42;;;;;;;76.80;38.78;;;;;;;;;;5016675;28;93823;-75
2022/01/26 18:59:10;;;;;;;74.47;39.08;;;;;;;;;;5016864;28;93002;-75
2022/01/26 19:01:36;;;;;;;68.57;35.72;;;;;;;;;;5016433;28;92329;-74
2022/01/26 19:04:34;;;;;;;73.88;35.50;;;;;;;;;;5015815;28;94242;-75
2022/01/26 19:07:02;;;;;;;69.65;35.33;;;;;;;;;;5014984;28;95549;-75
2022/01/26 19:09:29;;;;;;;69.30;35.85;;;;;;;;;;5017439;28;92525;-75
2022/01/26 19:11:56;;;;;;;72.75;36.35;;;;;;;;;;5016929;28;93539;-75
2022/01/26 19:14:27;;;;;;;71.70;36.45;;;;;;;;;;5038419;27;93455;-75
2022/01/26 19:25:25;;;;;;;73.55;36.55;;;;;;;;;;5027649;27;92862;-75
2022/01/26 19:44:19;;;;;;;68.25;32.40;;;;;;;;;;5026582;27;92273;-75
2022/01/26 19:47:11;;;;;;;73.28;32.50;;;;;;;;;;5024136;27;93352;-75
2022/01/26 19:52:20;;;;;;;66.85;33.28;;;;;;;;;;5026733;27;91720;-78
2022/01/26 19:54:49;;;;;;;72.78;35.03;;;;;;;;;;5012296;27;92245;-75
2022/01/26 19:57:18;;;;;;;79.80;37.55;;;;;;;;;;5028064;27;93193;-75
2022/01/26 19:59:46;;;;;;;71.47;35.22;;;;;;;;;;5022235;27;94800;-76
2022/01/26 20:02:12;;;;;;;68.70;32.55;;;;;;;;;;5030936;27;95088;-77
2022/01/26 20:04:40;;;;;;;75.18;36.13;;;;;;;;;;5028137;27;92324;-75
2022/01/26 20:07:15;;;;;;;72.07;34.90;;;;;;;;;;5012393;27;92873;-75
2022/01/26 20:09:46;;;;;;;64.93;31.17;;;;;;;;;;5026986;27;93226;-75
2022/01/26 20:12:24;;;;;;;68.23;34.37;;;;;;;;;;5027975;27;92376;-75
2022/01/26 20:14:50;;;;;;;63.53;31.13;;;;;;;;;;5025637;27;93452;-76
2022/01/26 20:17:16;;;;;;;67.50;33.55;;;;;;;;;;5028815;27;92916;-75
2022/01/26 20:19:46;;;;;;;64.80;31.25;;;;;;;;;;5027188;27;92273;-76
2022/01/26 20:22:12;;;;;;;74.95;34.63;;;;;;;;;;5016052;28;93057;-76
2022/01/26 20:24:39;;;;;;;69.35;33.67;;;;;;;;;;5007710;27;96394;-75
2022/01/26 20:27:07;;;;;;;68.28;33.58;;;;;;;;;;5011840;28;98809;-74
2022/01/26 20:29:41;;;;;;;68.28;33.45;;;;;;;;;;5025029;27;93558;-75
2022/01/26 20:32:09;;;;;;;71.43;33.45;;;;;;;;;;5026491;27;92292;-75
2022/01/26 20:34:36;;;;;;;68.00;34.58;;;;;;;;;;5030720;27;92866;-75
2022/01/26 20:37:03;;;;;;;67.22;32.30;;;;;;;;;;5026264;27;93905;-75
2022/01/26 20:39:29;;;;;;;67.22;32.80;;;;;;;;;;5029343;27;92467;-75
2022/01/26 20:41:57;;;;;;;69.40;34.20;;;;;;;;;;5004270;27;95844;-75
2022/01/26 20:44:24;;;;;;;62.78;32.95;;;;;;;;;;5030789;27;93695;-73
2022/01/26 20:46:54;;;;;;;75.05;34.95;;;;;;;;;;5028671;27;93689;-79
2022/01/26 20:49:20;;;;;;;68.95;31.58;;;;;;;;;;5027974;27;95980;-75
2022/01/26 20:51:46;;;;;;;66.50;31.45;;;;;;;;;;5025992;27;92526;-74
2022/01/26 20:54:13;;;;;;;68.38;32.35;;;;;;;;;;5029727;27;92919;-74
2022/01/26 20:56:40;;;;;;;64.35;31.75;;;;;;;;;;5025823;27;93211;-75
2022/01/26 20:59:07;;;;;;;63.97;32.58;;;;;;;;;;5025509;27;93382;-76
2022/01/26 21:01:33;;;;;;;68.25;32.58;;;;;;;;;;5028441;27;93519;-74
2022/01/26 21:04:00;;;;;;;66.57;32.92;;;;;;;;;;5026736;27;93460;-75
2022/01/26 21:06:26;;;;;;;62.38;32.25;;;;;;;;;;5030551;27;92177;-74
2022/01/26 21:08:53;;;;;;;70.35;33.42;;;;;;;;;;5027751;27;92717;-75
2022/01/26 21:11:19;;;;;;;68.57;33.33;;;;;;;;;;5025769;27;92351;-75
2022/01/26 21:13:48;;;;;;;65.10;30.92;;;;;;;;;;5024352;27;95457;-75
2022/01/26 21:16:15;;;;;;;59.50;31.08;;;;;;;;;;5028944;27;93670;-74